Time;durP1;ratioP1;P1;durP2;ratioP2;P2;SDS_P1;SDS_P2;PMS_P1;PMS_P2;Temp;Humidity;BMP_temperature;BMP_pressure;BME280_temperature;BME280_humidity;BME280_pressure;Samples;Min_cycle;Max_cycle;Signal;HPM_P1;HPM_P2
2022/08/03 00:01:22;;;;;;;;;;;27.30;76.90;;;;;;5043332;28;19933;-60
2022/08/03 00:03:50;;;;;;;;;;;27.30;76.90;;;;;;5045909;28;19932;-59
2022/08/03 00:06:17;;;;;;;;;;;27.30;76.80;;;;;;5045357;28;19929;-56
2022/08/03 00:08:44;;;;;;;;;;;27.30;76.70;;;;;;5049942;28;19932;-60
2022/08/03 00:11:11;;;;;;;;;;;27.30;76.50;;;;;;5046174;28;19924;-58
2022/08/03 00:13:38;;;;;;;;;;;27.30;76.50;;;;;;5045849;28;19928;-56
2022/08/03 00:16:06;;;;;;;;;;;27.30;76.30;;;;;;5046068;28;20412;-59
2022/08/03 00:18:33;;;;;;;;;;;27.30;76.40;;;;;;5046269;28;19935;-57
2022/08/03 00:21:00;;;;;;;;;;;27.20;76.30;;;;;;5047376;28;19928;-58
2022/08/03 00:23:27;;;;;;;;;;;27.20;76.20;;;;;;5043680;28;19932;-62
2022/08/03 00:26:15;;;;;;;;;;;27.10;76.00;;;;;;5049536;28;19928;-60
2022/08/03 00:28:42;;;;;;;;;;;26.80;76.10;;;;;;5046136;28;19936;-61
2022/08/03 00:31:09;;;;;;;;;;;26.50;76.50;;;;;;5044746;28;19932;-61
2022/08/03 00:33:39;;;;;;;;;;;26.30;76.90;;;;;;5045948;28;19925;-59
2022/08/03 00:36:26;;;;;;;;;;;26.30;77.10;;;;;;5054119;28;19956;-58
2022/08/03 00:38:53;;;;;;;;;;;26.30;77.30;;;;;;5045025;28;19936;-57
2022/08/03 00:41:21;;;;;;;;;;;26.20;77.10;;;;;;5049298;28;19924;-59
2022/08/03 00:43:48;;;;;;;;;;;26.20;77.20;;;;;;5045811;28;19935;-58
2022/08/03 00:46:15;;;;;;;;;;;26.10;77.20;;;;;;5044526;28;19940;-57
2022/08/03 00:48:50;;;;;;;;;;;26.00;77.50;;;;;;5045294;28;19933;-57
2022/08/03 00:51:18;;;;;;;;;;;25.90;77.60;;;;;;5045187;28;19933;-57
2022/08/03 00:53:46;;;;;;;;;;;25.80;77.80;;;;;;5046120;28;19925;-59
2022/08/03 00:56:14;;;;;;;;;;;25.80;78.00;;;;;;5046536;28;19932;-57
2022/08/03 00:58:43;;;;;;;;;;;25.80;77.90;;;;;;5047890;28;19936;-53
2022/08/03 01:01:11;;;;;;;;;;;25.80;77.80;;;;;;5044621;28;19955;-56
2022/08/03 01:03:38;;;;;;;;;;;25.90;77.80;;;;;;5047232;28;19932;-60
2022/08/03 01:06:16;;;;;;;;;;;25.80;77.80;;;;;;5044856;28;19925;-58
2022/08/03 01:08:47;;;;;;;;;;;26.00;78.10;;;;;;5046003;28;19935;-58
2022/08/03 01:11:34;;;;;;;;;;;26.00;78.10;;;;;;5044346;28;20976;-59
2022/08/03 01:14:29;;;;;;;;;;;26.00;78.40;;;;;;5035583;28;19932;-60
2022/08/03 01:17:02;;;;;;;;;;;26.20;78.20;;;;;;5049359;28;19939;-60
2022/08/03 01:19:38;;;;;;;;;;;26.30;78.00;;;;;;5046807;28;20320;-62
2022/08/03 01:22:24;;;;;;;;;;;26.40;77.80;;;;;;5046762;28;19925;-59
2022/08/03 01:25:10;;;;;;;;;;;26.50;77.80;;;;;;5045125;28;19937;-62
2022/08/03 01:27:40;;;;;;;;;;;26.50;77.80;;;;;;5047025;28;20331;-60
2022/08/03 01:30:08;;;;;;;;;;;26.60;77.80;;;;;;5048681;28;19940;-59
2022/08/03 01:32:50;;;;;;;;;;;26.60;77.70;;;;;;5037936;28;20399;-62
2022/08/03 01:35:46;;;;;;;;;;;26.60;77.60;;;;;;5053280;28;20475;-62
2022/08/03 01:38:32;;;;;;;;;;;26.60;77.50;;;;;;5046613;28;19952;-62
2022/08/03 01:41:04;;;;;;;;;;;26.70;77.60;;;;;;5045241;28;19932;-62
2022/08/03 01:43:32;;;;;;;;;;;26.70;77.60;;;;;;5045791;28;20383;-62
2022/08/03 01:46:20;;;;;;;;;;;26.70;77.60;;;;;;5048843;28;19929;-62
2022/08/03 01:48:48;;;;;;;;;;;26.70;77.70;;;;;;5046596;28;19933;-59
2022/08/03 01:51:17;;;;;;;;;;;26.70;77.80;;;;;;5046953;28;19932;-62
2022/08/03 01:53:45;;;;;;;;;;;26.70;77.90;;;;;;5048154;28;20545;-59
2022/08/03 01:56:13;;;;;;;;;;;26.70;78.00;;;;;;5046952;28;19929;-63
2022/08/03 01:58:40;;;;;;;;;;;26.70;78.00;;;;;;5050310;28;19932;-59
2022/08/03 02:01:08;;;;;;;;;;;26.70;78.10;;;;;;5048366;28;19948;-60
2022/08/03 02:03:38;;;;;;;;;;;26.70;78.20;;;;;;5044721;28;19924;-62
2022/08/03 02:06:26;;;;;;;;;;;26.70;78.20;;;;;;5055341;28;19963;-62
2022/08/03 02:09:14;;;;;;;;;;;26.70;78.30;;;;;;5049274;28;19929;-63
2022/08/03 02:11:41;;;;;;;;;;;26.70;78.30;;;;;;5046825;28;19928;-60
2022/08/03 02:14:09;;;;;;;;;;;26.70;78.30;;;;;;5052905;28;19929;-60
2022/08/03 02:16:36;;;;;;;;;;;26.70;78.30;;;;;;5050940;28;19932;-60
2022/08/03 02:19:05;;;;;;;;;;;26.70;78.30;;;;;;5053459;28;19929;-59
2022/08/03 02:21:34;;;;;;;;;;;26.70;78.30;;;;;;5046170;28;19928;-59
2022/08/03 02:24:21;;;;;;;;;;;26.70;78.30;;;;;;5054251;28;19924;-59
2022/08/03 02:26:50;;;;;;;;;;;26.70;78.20;;;;;;5056769;28;19932;-62
2022/08/03 02:29:22;;;;;;;;;;;26.70;78.20;;;;;;5044734;28;20292;-60
2022/08/03 02:32:12;;;;;;;;;;;26.70;78.10;;;;;;5049583;28;20117;-61
2022/08/03 02:34:41;;;;;;;;;;;26.60;78.00;;;;;;5044798;28;20660;-61
2022/08/03 02:37:09;;;;;;;;;;;26.60;78.00;;;;;;5053245;28;19932;-59
2022/08/03 02:39:38;;;;;;;;;;;26.70;78.10;;;;;;5045434;28;19940;-61
2022/08/03 02:42:07;;;;;;;;;;;26.70;78.20;;;;;;5046912;28;19929;-61
2022/08/03 02:44:36;;;;;;;;;;;26.70;78.20;;;;;;5045298;28;19929;-62
2022/08/03 02:47:06;;;;;;;;;;;26.70;78.30;;;;;;5054443;28;19935;-61
2022/08/03 02:49:34;;;;;;;;;;;26.60;78.20;;;;;;5056330;28;19929;-58
2022/08/03 02:52:22;;;;;;;;;;;26.60;78.30;;;;;;5039170;28;19944;-60
2022/08/03 02:54:51;;;;;;;;;;;26.60;78.30;;;;;;5050888;28;19929;-62
2022/08/03 02:57:20;;;;;;;;;;;26.60;78.40;;;;;;5047680;28;19960;-61
2022/08/03 02:59:47;;;;;;;;;;;26.60;78.40;;;;;;5060118;28;19929;-62
2022/08/03 03:02:15;;;;;;;;;;;26.60;78.40;;;;;;5052575;28;19925;-63
2022/08/03 03:04:43;;;;;;;;;;;26.60;78.60;;;;;;5051328;28;20396;-61
2022/08/03 03:07:31;;;;;;;;;;;26.60;78.60;;;;;;5051159;28;20293;-61
2022/08/03 03:10:19;;;;;;;;;;;26.60;78.50;;;;;;5048906;28;19933;-61
2022/08/03 03:12:47;;;;;;;;;;;26.60;78.50;;;;;;5061966;28;20412;-60
2022/08/03 03:15:14;;;;;;;;;;;26.60;78.50;;;;;;5053877;28;19929;-60
2022/08/03 03:17:42;;;;;;;;;;;26.60;78.40;;;;;;5053617;28;19956;-60
2022/08/03 03:20:09;;;;;;;;;;;26.60;78.30;;;;;;5047312;28;20408;-59
2022/08/03 03:22:36;;;;;;;;;;;26.60;78.30;;;;;;5055004;28;19928;-59
2022/08/03 03:25:06;;;;;;;;;;;26.60;78.20;;;;;;5056596;28;19925;-60
2022/08/03 03:27:33;;;;;;;;;;;26.50;78.00;;;;;;5064278;28;19932;-59
2022/08/03 03:30:01;;;;;;;;;;;26.50;77.90;;;;;;5045448;28;19932;-59
2022/08/03 03:32:28;;;;;;;;;;;26.60;77.70;;;;;;5055449;28;20185;-61
2022/08/03 03:34:58;;;;;;;;;;;26.50;77.60;;;;;;5049249;28;19933;-55
2022/08/03 03:37:25;;;;;;;;;;;26.50;77.50;;;;;;5048655;28;20003;-61
2022/08/03 03:39:53;;;;;;;;;;;26.50;77.50;;;;;;5051535;28;19936;-60
2022/08/03 03:42:20;;;;;;;;;;;26.50;77.50;;;;;;5052506;28;20311;-60
2022/08/03 03:44:48;;;;;;;;;;;26.50;77.50;;;;;;5044951;28;20000;-63
2022/08/03 03:47:15;;;;;;;;;;;26.50;77.50;;;;;;5041780;28;19988;-60
2022/08/03 03:49:42;;;;;;;;;;;26.50;77.50;;;;;;5049079;28;19928;-62
2022/08/03 03:52:10;;;;;;;;;;;26.50;77.50;;;;;;5047350;28;19925;-59
2022/08/03 03:54:41;;;;;;;;;;;26.50;77.60;;;;;;5057301;28;19929;-61
2022/08/03 03:57:09;;;;;;;;;;;26.50;77.60;;;;;;5046235;28;19929;-61
2022/08/03 03:59:40;;;;;;;;;;;26.50;77.50;;;;;;5047683;28;19925;-61
2022/08/03 04:02:08;;;;;;;;;;;26.50;77.60;;;;;;5048253;28;20479;-58
2022/08/03 04:12:59;;;;;;;;;;;26.40;78.30;;;;;;5046436;28;19933;-61
2022/08/03 04:15:27;;;;;;;;;;;26.40;77.90;;;;;;5047248;28;19929;-61
2022/08/03 04:17:56;;;;;;;;;;;26.40;77.90;;;;;;5051802;28;19940;-61
2022/08/03 04:20:26;;;;;;;;;;;26.40;78.00;;;;;;5046914;28;20658;-59
2022/08/03 04:22:55;;;;;;;;;;;26.40;78.20;;;;;;5049165;28;19933;-60
2022/08/03 04:25:24;;;;;;;;;;;26.40;78.30;;;;;;5046939;28;20379;-59
2022/08/03 04:27:54;;;;;;;;;;;26.40;78.30;;;;;;5049014;28;20159;-61
2022/08/03 04:30:46;;;;;;;;;;;26.40;78.20;;;;;;5047069;28;20396;-60
2022/08/03 04:33:15;;;;;;;;;;;26.40;78.20;;;;;;5043810;28;20320;-61
2022/08/03 04:35:43;;;;;;;;;;;26.40;78.30;;;;;;5045121;28;20427;-61
2022/08/03 04:38:29;;;;;;;;;;;26.40;78.40;;;;;;5048099;28;19937;-61
2022/08/03 04:40:56;;;;;;;;;;;26.40;78.30;;;;;;5040493;28;19986;-61
2022/08/03 04:43:24;;;;;;;;;;;26.40;78.30;;;;;;5046006;28;19956;-60
2022/08/03 04:45:51;;;;;;;;;;;26.40;78.40;;;;;;5045961;28;19925;-63
2022/08/03 04:48:19;;;;;;;;;;;26.40;78.50;;;;;;5043824;28;19933;-60
2022/08/03 04:50:46;;;;;;;;;;;26.30;78.50;;;;;;5050118;28;20419;-62
2022/08/03 04:53:15;;;;;;;;;;;26.40;78.70;;;;;;5043807;28;19928;-61
2022/08/03 04:55:42;;;;;;;;;;;26.40;78.90;;;;;;5043981;28;19935;-58
2022/08/03 04:58:09;;;;;;;;;;;26.40;79.60;;;;;;5044079;28;19939;-62
2022/08/03 05:00:36;;;;;;;;;;;26.40;79.10;;;;;;5048099;28;20392;-59
2022/08/03 05:03:04;;;;;;;;;;;26.40;79.20;;;;;;5040578;28;19936;-60
2022/08/03 05:05:50;;;;;;;;;;;26.40;79.30;;;;;;5039819;28;19936;-61
2022/08/03 05:08:19;;;;;;;;;;;26.40;79.30;;;;;;5036773;28;19933;-59
2022/08/03 05:10:55;;;;;;;;;;;26.30;79.30;;;;;;5043794;28;20403;-59
2022/08/03 05:13:25;;;;;;;;;;;26.30;79.40;;;;;;5035692;28;19933;-61
2022/08/03 05:15:52;;;;;;;;;;;26.30;79.40;;;;;;5039785;28;19940;-58
2022/08/03 05:18:19;;;;;;;;;;;26.30;79.50;;;;;;5042947;28;19955;-56
2022/08/03 05:20:47;;;;;;;;;;;26.40;79.50;;;;;;5040965;28;19929;-61
2022/08/03 05:23:14;;;;;;;;;;;26.40;79.40;;;;;;5052141;28;19928;-58
2022/08/03 05:25:41;;;;;;;;;;;26.40;79.30;;;;;;5044318;28;19928;-61
2022/08/03 05:28:16;;;;;;;;;;;26.40;79.00;;;;;;5048983;28;19952;-57
2022/08/03 05:30:43;;;;;;;;;;;26.20;78.80;;;;;;5046526;28;19932;-60
2022/08/03 05:33:10;;;;;;;;;;;26.00;79.50;;;;;;5051862;28;19936;-59
2022/08/03 05:35:38;;;;;;;;;;;25.90;80.30;;;;;;5041211;28;19932;-58
2022/08/03 05:38:25;;;;;;;;;;;25.80;80.30;;;;;;5047922;28;19929;-60
2022/08/03 05:41:02;;;;;;;;;;;25.70;80.80;;;;;;5034431;28;19929;-59
2022/08/03 05:43:50;;;;;;;;;;;25.60;81.00;;;;;;5034046;28;20004;-60
2022/08/03 05:46:17;;;;;;;;;;;25.50;81.30;;;;;;5041847;28;19929;-61
2022/08/03 05:48:44;;;;;;;;;;;25.50;81.40;;;;;;5039934;28;19924;-62
2022/08/03 05:51:12;;;;;;;;;;;25.50;81.80;;;;;;5042522;28;19925;-62
2022/08/03 05:53:40;;;;;;;;;;;25.70;81.50;;;;;;5050843;28;19929;-61
2022/08/03 05:56:07;;;;;;;;;;;25.80;81.00;;;;;;5049172;28;19936;-61
2022/08/03 05:58:42;;;;;;;;;;;25.90;80.70;;;;;;5046790;28;20396;-60
2022/08/03 06:01:09;;;;;;;;;;;26.00;80.50;;;;;;5037605;28;19939;-61
2022/08/03 06:03:36;;;;;;;;;;;26.10;80.30;;;;;;5041218;28;20375;-61
2022/08/03 06:06:03;;;;;;;;;;;26.10;80.20;;;;;;5044548;28;19939;-60
2022/08/03 06:08:31;;;;;;;;;;;26.20;80.20;;;;;;5052731;28;19929;-58
2022/08/03 06:10:58;;;;;;;;;;;26.20;80.20;;;;;;5045860;28;19929;-59
2022/08/03 06:13:25;;;;;;;;;;;26.20;80.20;;;;;;5044365;28;19929;-61
2022/08/03 06:15:52;;;;;;;;;;;26.20;80.10;;;;;;5047963;28;20406;-59
2022/08/03 06:18:19;;;;;;;;;;;26.20;80.10;;;;;;5043015;28;19933;-60
2022/08/03 06:20:46;;;;;;;;;;;26.30;80.20;;;;;;5045247;28;19928;-59
2022/08/03 06:23:16;;;;;;;;;;;26.30;80.20;;;;;;5045593;28;19935;-60
2022/08/03 06:25:44;;;;;;;;;;;26.30;80.20;;;;;;5043915;28;19936;-61
2022/08/03 06:28:13;;;;;;;;;;;26.30;80.10;;;;;;5053743;28;19932;-60
2022/08/03 06:31:00;;;;;;;;;;;26.40;80.20;;;;;;5040769;28;19936;-59
2022/08/03 06:33:28;;;;;;;;;;;26.40;80.20;;;;;;5048469;28;20396;-59
2022/08/03 06:36:15;;;;;;;;;;;26.40;80.20;;;;;;5046436;28;19925;-60
2022/08/03 06:38:42;;;;;;;;;;;26.50;80.30;;;;;;5050113;28;19929;-60
2022/08/03 06:41:09;;;;;;;;;;;26.40;80.20;;;;;;5051200;28;19925;-60
2022/08/03 06:43:36;;;;;;;;;;;26.50;80.20;;;;;;5051512;28;19928;-60
2022/08/03 06:46:23;;;;;;;;;;;26.50;80.20;;;;;;5042876;28;19933;-60
2022/08/03 06:48:51;;;;;;;;;;;26.50;80.30;;;;;;5065931;28;20513;-60
2022/08/03 06:51:19;;;;;;;;;;;26.50;80.30;;;;;;5050206;28;19936;-61
2022/08/03 06:53:46;;;;;;;;;;;26.50;80.30;;;;;;5053929;28;19966;-60
2022/08/03 06:56:13;;;;;;;;;;;26.50;80.40;;;;;;5046927;28;19925;-60
2022/08/03 06:58:40;;;;;;;;;;;26.60;80.40;;;;;;5055523;28;19944;-61
2022/08/03 07:01:07;;;;;;;;;;;26.50;80.40;;;;;;5055035;28;19929;-62
2022/08/03 07:03:35;;;;;;;;;;;26.60;80.50;;;;;;5058652;28;19928;-61
2022/08/03 07:06:18;;;;;;;;;;;26.60;80.50;;;;;;5048127;28;19924;-61
2022/08/03 07:08:45;;;;;;;;;;;26.60;80.60;;;;;;5057471;28;20561;-59
2022/08/03 07:11:17;;;;;;;;;;;26.60;80.50;;;;;;5046417;28;19943;-61
2022/08/03 07:13:45;;;;;;;;;;;26.60;80.60;;;;;;5045395;28;19925;-61
2022/08/03 07:16:12;;;;;;;;;;;26.60;80.70;;;;;;5054574;28;20482;-62
2022/08/03 07:18:39;;;;;;;;;;;26.60;80.70;;;;;;5055044;28;20542;-62
2022/08/03 07:21:08;;;;;;;;;;;26.60;80.80;;;;;;5051577;28;19932;-61
2022/08/03 07:23:35;;;;;;;;;;;26.60;80.80;;;;;;5047689;28;20308;-61
2022/08/03 07:26:02;;;;;;;;;;;26.60;80.90;;;;;;5040736;28;19993;-57
2022/08/03 07:28:29;;;;;;;;;;;26.70;81.00;;;;;;5045128;28;19936;-62
2022/08/03 07:30:56;;;;;;;;;;;26.60;81.00;;;;;;5043786;28;19953;-61
2022/08/03 07:33:23;;;;;;;;;;;26.60;81.60;;;;;;5046395;28;19952;-61
2022/08/03 07:35:51;;;;;;;;;;;26.60;81.60;;;;;;5046207;28;20276;-61
2022/08/03 07:38:18;;;;;;;;;;;26.70;82.50;;;;;;5043798;28;19952;-61
2022/08/03 07:40:47;;;;;;;;;;;26.70;82.60;;;;;;5043370;28;19955;-60
2022/08/03 07:43:14;;;;;;;;;;;26.70;83.00;;;;;;5045326;28;19924;-63
2022/08/03 07:45:41;;;;;;;;;;;26.80;83.50;;;;;;5046189;28;19947;-62
2022/08/03 07:48:08;;;;;;;;;;;26.80;84.50;;;;;;5049878;28;20400;-60
2022/08/03 07:50:39;;;;;;;;;;;26.80;85.20;;;;;;5044800;28;19932;-57
2022/08/03 07:53:06;;;;;;;;;;;26.80;86.40;;;;;;5038845;28;19924;-61
2022/08/03 07:55:34;;;;;;;;;;;26.90;86.80;;;;;;5044788;28;20510;-57
2022/08/03 07:58:02;;;;;;;;;;;26.90;87.40;;;;;;5045259;28;19932;-63
2022/08/03 08:00:30;;;;;;;;;;;26.90;88.40;;;;;;5043311;28;19931;-63
2022/08/03 08:02:57;;;;;;;;;;;26.90;89.10;;;;;;5046461;28;19936;-62
2022/08/03 08:05:24;;;;;;;;;;;26.90;89.10;;;;;;5045548;28;20434;-60
2022/08/03 08:07:52;;;;;;;;;;;26.90;89.80;;;;;;5047798;28;20312;-63
2022/08/03 08:10:19;;;;;;;;;;;27.00;90.10;;;;;;5045306;28;20042;-62
2022/08/03 08:12:46;;;;;;;;;;;27.00;90.30;;;;;;5045600;28;19936;-61
2022/08/03 08:15:13;;;;;;;;;;;27.00;90.50;;;;;;5048070;28;19929;-65
2022/08/03 08:17:41;;;;;;;;;;;27.10;90.80;;;;;;5043205;28;19939;-66
2022/08/03 08:20:09;;;;;;;;;;;27.10;90.90;;;;;;5050030;28;19925;-61
2022/08/03 08:22:37;;;;;;;;;;;27.10;90.90;;;;;;5044548;28;19929;-60
2022/08/03 08:25:06;;;;;;;;;;;27.10;91.10;;;;;;5048189;28;19933;-60
2022/08/03 08:27:39;;;;;;;;;;;27.10;91.10;;;;;;5053029;28;20348;-58
2022/08/03 08:30:27;;;;;;;;;;;27.10;91.00;;;;;;5048361;28;19952;-60
2022/08/03 08:32:58;;;;;;;;;;;27.10;90.90;;;;;;5046119;28;19936;-60
2022/08/03 08:35:25;;;;;;;;;;;27.20;91.10;;;;;;5047026;28;20707;-58
2022/08/03 08:37:52;;;;;;;;;;;27.20;91.10;;;;;;5043775;28;19929;-62
2022/08/03 08:40:21;;;;;;;;;;;27.20;91.30;;;;;;5055661;28;19928;-62
2022/08/03 08:42:48;;;;;;;;;;;27.20;91.20;;;;;;5050630;28;19929;-59
2022/08/03 08:45:25;;;;;;;;;;;27.20;91.30;;;;;;5045589;28;19950;-61
2022/08/03 08:47:53;;;;;;;;;;;27.30;91.40;;;;;;5046957;28;20483;-56
2022/08/03 08:50:28;;;;;;;;;;;27.30;91.10;;;;;;5044938;28;19932;-54
2022/08/03 08:52:59;;;;;;;;;;;27.30;90.90;;;;;;5042328;28;19929;-57
2022/08/03 08:55:26;;;;;;;;;;;27.30;91.00;;;;;;5047806;28;19936;-57
2022/08/03 08:57:58;;;;;;;;;;;27.30;90.80;;;;;;5048222;28;19929;-54
2022/08/03 09:00:25;;;;;;;;;;;27.30;90.80;;;;;;5046639;28;19936;-59
2022/08/03 09:02:52;;;;;;;;;;;27.30;90.70;;;;;;5037965;28;19940;-52
2022/08/03 09:05:20;;;;;;;;;;;27.30;90.50;;;;;;5048154;28;20388;-59
2022/08/03 09:08:07;;;;;;;;;;;27.30;90.40;;;;;;5044375;28;20277;-53
2022/08/03 09:10:35;;;;;;;;;;;27.40;90.40;;;;;;5040747;28;19933;-59
2022/08/03 09:13:02;;;;;;;;;;;27.40;90.40;;;;;;5039069;28;20380;-59
2022/08/03 09:15:30;;;;;;;;;;;27.30;90.60;;;;;;5048678;28;19929;-56
2022/08/03 09:17:58;;;;;;;;;;;27.40;90.70;;;;;;5050530;28;19935;-59
2022/08/03 09:20:29;;;;;;;;;;;27.40;90.70;;;;;;5045229;28;20320;-58
2022/08/03 09:22:56;;;;;;;;;;;27.40;90.70;;;;;;5049258;28;20443;-58
2022/08/03 09:25:27;;;;;;;;;;;27.40;90.80;;;;;;5051063;28;19933;-59
2022/08/03 09:28:02;;;;;;;;;;;27.40;90.70;;;;;;5046853;28;19933;-56
2022/08/03 09:30:29;;;;;;;;;;;27.40;91.00;;;;;;5042623;28;19925;-59
2022/08/03 09:33:01;;;;;;;;;;;27.40;91.10;;;;;;5038411;28;19933;-56
2022/08/03 09:35:28;;;;;;;;;;;27.40;91.00;;;;;;5039248;28;19948;-56
2022/08/03 09:38:17;;;;;;;;;;;27.40;90.90;;;;;;5043241;28;20482;-60
2022/08/03 09:40:45;;;;;;;;;;;27.40;90.80;;;;;;5044314;28;19932;-57
2022/08/03 09:43:13;;;;;;;;;;;27.40;90.70;;;;;;5042076;28;19929;-54
2022/08/03 09:45:41;;;;;;;;;;;27.40;90.70;;;;;;5046316;28;19928;-54
2022/08/03 09:48:22;;;;;;;;;;;27.40;90.90;;;;;;5037238;28;19929;-58
2022/08/03 09:50:52;;;;;;;;;;;27.40;91.00;;;;;;5044366;28;19936;-55
2022/08/03 09:53:43;;;;;;;;;;;27.50;91.20;;;;;;5040929;28;20293;-58
2022/08/03 09:56:37;;;;;;;;;;;27.50;91.50;;;;;;5043892;28;19929;-58
2022/08/03 09:59:05;;;;;;;;;;;27.50;91.80;;;;;;5041871;28;19936;-58
2022/08/03 10:01:33;;;;;;;;;;;27.50;91.80;;;;;;5037944;28;19932;-56
2022/08/03 10:04:01;;;;;;;;;;;27.50;92.20;;;;;;5047205;28;19924;-63
2022/08/03 10:06:30;;;;;;;;;;;27.50;92.10;;;;;;5049861;28;19932;-63
2022/08/03 10:09:07;;;;;;;;;;;27.60;92.40;;;;;;5046239;28;19948;-61
2022/08/03 10:11:35;;;;;;;;;;;27.60;93.40;;;;;;5047493;28;19936;-60
2022/08/03 10:14:09;;;;;;;;;;;27.60;94.60;;;;;;5060796;28;19929;-58
2022/08/03 10:16:37;;;;;;;;;;;27.60;94.00;;;;;;5051799;28;19925;-60
2022/08/03 10:19:06;;;;;;;;;;;27.60;93.80;;;;;;5045594;28;20339;-61
2022/08/03 10:21:34;;;;;;;;;;;27.60;93.80;;;;;;5042446;28;20396;-60
2022/08/03 10:24:02;;;;;;;;;;;27.50;93.60;;;;;;5049685;28;20561;-60
2022/08/03 10:26:31;;;;;;;;;;;27.50;93.60;;;;;;5046935;28;20273;-61
2022/08/03 10:29:00;;;;;;;;;;;27.50;93.20;;;;;;5048203;28;20289;-61
2022/08/03 10:31:33;;;;;;;;;;;27.50;93.00;;;;;;5057004;28;19935;-61
2022/08/03 10:34:01;;;;;;;;;;;27.50;92.70;;;;;;5049693;28;19933;-59
2022/08/03 10:36:30;;;;;;;;;;;27.50;92.50;;;;;;5046752;28;19933;-60
2022/08/03 10:38:59;;;;;;;;;;;27.40;92.20;;;;;;5038460;28;19936;-59
2022/08/03 10:41:31;;;;;;;;;;;27.50;91.80;;;;;;5053773;28;19924;-62
2022/08/03 10:44:06;;;;;;;;;;;27.50;91.60;;;;;;5037511;28;19929;-62
2022/08/03 10:46:35;;;;;;;;;;;27.50;91.50;;;;;;5052425;28;19928;-56
2022/08/03 10:49:07;;;;;;;;;;;27.50;91.30;;;;;;5058637;28;19955;-58
2022/08/03 10:51:35;;;;;;;;;;;27.50;91.20;;;;;;5042191;28;19936;-62
2022/08/03 10:54:02;;;;;;;;;;;27.50;91.10;;;;;;5046538;28;20177;-62
2022/08/03 10:59:39;;;;;;;;;;;27.50;91.00;;;;;;5054174;28;20333;-61
2022/08/03 11:02:09;;;;;;;;;;;27.40;90.90;;;;;;5050294;28;19924;-59
2022/08/03 11:04:36;;;;;;;;;;;27.50;90.90;;;;;;5054343;28;20388;-61
2022/08/03 11:07:18;;;;;;;;;;;27.50;90.80;;;;;;5049299;28;20425;-62
2022/08/03 11:09:53;;;;;;;;;;;27.50;90.80;;;;;;5046433;28;20412;-60
2022/08/03 11:12:21;;;;;;;;;;;27.50;90.70;;;;;;5050103;28;20315;-61
2022/08/03 11:14:59;;;;;;;;;;;27.50;90.60;;;;;;5043164;28;19928;-60
2022/08/03 11:17:26;;;;;;;;;;;27.50;90.60;;;;;;5043389;28;20304;-61
2022/08/03 11:19:54;;;;;;;;;;;27.50;90.60;;;;;;5049221;28;19939;-62
2022/08/03 11:22:24;;;;;;;;;;;27.40;90.50;;;;;;5039163;28;20031;-59
2022/08/03 11:24:55;;;;;;;;;;;27.50;90.40;;;;;;5047582;28;19932;-62
2022/08/03 11:27:34;;;;;;;;;;;27.50;90.30;;;;;;5063690;28;19929;-62
2022/08/03 11:30:04;;;;;;;;;;;27.50;90.30;;;;;;5041745;28;19929;-62
2022/08/03 11:32:51;;;;;;;;;;;27.50;90.20;;;;;;5054517;28;20483;-61
2022/08/03 11:35:20;;;;;;;;;;;27.50;90.20;;;;;;5053584;28;20380;-60
2022/08/03 11:37:56;;;;;;;;;;;27.50;90.10;;;;;;5040100;28;20424;-61
2022/08/03 11:40:31;;;;;;;;;;;27.50;90.10;;;;;;5043220;28;20406;-60
2022/08/03 11:42:58;;;;;;;;;;;27.50;90.00;;;;;;5047746;28;19928;-59
2022/08/03 11:45:25;;;;;;;;;;;27.50;90.00;;;;;;5037701;28;19929;-62
2022/08/03 11:47:53;;;;;;;;;;;27.50;89.90;;;;;;5050372;28;20415;-61
2022/08/03 11:50:20;;;;;;;;;;;27.50;89.80;;;;;;5038465;28;19935;-61
2022/08/03 11:52:48;;;;;;;;;;;27.50;89.70;;;;;;5034990;28;20315;-61
2022/08/03 11:55:17;;;;;;;;;;;27.50;89.60;;;;;;5053958;28;19924;-59
2022/08/03 11:57:46;;;;;;;;;;;27.50;89.50;;;;;;5039326;28;19925;-61
2022/08/03 12:00:33;;;;;;;;;;;27.50;89.40;;;;;;5042829;28;20791;-61
2022/08/03 12:03:02;;;;;;;;;;;27.50;89.30;;;;;;5052585;28;19928;-59
2022/08/03 12:05:39;;;;;;;;;;;27.50;89.20;;;;;;5056293;28;19948;-59
2022/08/03 12:08:07;;;;;;;;;;;27.50;89.10;;;;;;5046306;28;19925;-59
2022/08/03 12:10:34;;;;;;;;;;;27.50;89.00;;;;;;5045976;28;19928;-61
2022/08/03 12:13:04;;;;;;;;;;;27.50;88.90;;;;;;5044250;28;19939;-62
2022/08/03 12:15:52;;;;;;;;;;;27.50;88.90;;;;;;5042466;28;20418;-57
2022/08/03 12:18:21;;;;;;;;;;;27.60;88.90;;;;;;5040587;28;19929;-59
2022/08/03 12:20:49;;;;;;;;;;;27.60;88.80;;;;;;5039422;28;19925;-61
2022/08/03 12:23:16;;;;;;;;;;;27.50;88.60;;;;;;5036908;28;20328;-61
2022/08/03 12:25:44;;;;;;;;;;;27.50;88.50;;;;;;5039040;28;19933;-64
2022/08/03 12:28:15;;;;;;;;;;;27.60;88.70;;;;;;5039929;28;20415;-60
2022/08/03 12:31:05;;;;;;;;;;;27.60;89.00;;;;;;5044233;28;19935;-65
2022/08/03 12:33:52;;;;;;;;;;;27.60;89.30;;;;;;5036819;28;19929;-65
2022/08/03 12:36:19;;;;;;;;;;;27.60;89.90;;;;;;5043316;28;20007;-61
2022/08/03 12:38:53;;;;;;;;;;;27.60;89.80;;;;;;5038694;28;19925;-63
2022/08/03 12:41:26;;;;;;;;;;;27.70;90.40;;;;;;5044944;28;19929;-63
2022/08/03 12:43:53;;;;;;;;;;;27.70;90.30;;;;;;5056551;28;19933;-61
2022/08/03 12:46:21;;;;;;;;;;;27.70;90.60;;;;;;5043722;28;20316;-63
2022/08/03 12:48:58;;;;;;;;;;;27.80;90.70;;;;;;5040765;28;19936;-63
2022/08/03 12:51:26;;;;;;;;;;;27.80;90.70;;;;;;5050451;28;20329;-63
2022/08/03 12:53:54;;;;;;;;;;;27.80;91.00;;;;;;5064067;28;19940;-64
2022/08/03 12:56:21;;;;;;;;;;;27.80;91.10;;;;;;5045810;28;19932;-58
2022/08/03 12:58:52;;;;;;;;;;;27.80;91.10;;;;;;5048496;28;20459;-64
2022/08/03 13:01:21;;;;;;;;;;;27.80;91.10;;;;;;5047412;28;19939;-65
2022/08/03 13:03:50;;;;;;;;;;;27.90;91.10;;;;;;5048284;28;19995;-66
2022/08/03 13:06:20;;;;;;;;;;;27.90;91.00;;;;;;5051674;28;19956;-64
2022/08/03 13:08:48;;;;;;;;;;;27.90;91.00;;;;;;5035968;28;19929;-63
2022/08/03 13:11:22;;;;;;;;;;;27.90;90.90;;;;;;5060434;28;19924;-59
2022/08/03 13:14:09;;;;;;;;;;;27.90;90.80;;;;;;5054221;28;19951;-66
2022/08/03 13:16:46;;;;;;;;;;;28.00;90.60;;;;;;5053472;28;19928;-65
2022/08/03 13:19:13;;;;;;;;;;;28.00;90.50;;;;;;5050280;28;19936;-63
2022/08/03 13:21:42;;;;;;;;;;;28.00;90.90;;;;;;5039630;28;19936;-65
2022/08/03 13:24:30;;;;;;;;;;;28.00;91.20;;;;;;5046244;28;19932;-66
2022/08/03 13:26:58;;;;;;;;;;;28.10;91.30;;;;;;5047374;28;20323;-65
2022/08/03 13:29:25;;;;;;;;;;;28.10;91.50;;;;;;5044136;28;19925;-65
2022/08/03 13:31:52;;;;;;;;;;;28.10;91.50;;;;;;5052585;28;19932;-65
2022/08/03 13:34:19;;;;;;;;;;;28.10;91.70;;;;;;5047372;28;19936;-63
2022/08/03 13:36:50;;;;;;;;;;;28.20;92.10;;;;;;5046739;28;19936;-64
2022/08/03 13:39:38;;;;;;;;;;;28.20;92.10;;;;;;5045726;28;19940;-65
2022/08/03 13:42:25;;;;;;;;;;;28.20;92.00;;;;;;5047461;28;20257;-64
2022/08/03 13:44:52;;;;;;;;;;;28.30;91.70;;;;;;5052558;28;19928;-65
2022/08/03 13:47:19;;;;;;;;;;;28.30;92.00;;;;;;5053132;28;19936;-65
2022/08/03 13:49:47;;;;;;;;;;;28.30;92.50;;;;;;5058913;28;20487;-65
2022/08/03 13:52:34;;;;;;;;;;;28.40;92.80;;;;;;5044199;28;19932;-65
2022/08/03 13:55:02;;;;;;;;;;;28.40;92.90;;;;;;5040506;28;19947;-64
2022/08/03 13:57:30;;;;;;;;;;;28.50;93.30;;;;;;5047847;28;19929;-66
2022/08/03 14:00:17;;;;;;;;;;;28.50;93.40;;;;;;5052780;28;19928;-65
2022/08/03 14:03:01;;;;;;;;;;;28.60;93.50;;;;;;5049580;28;20308;-66
2022/08/03 14:05:43;;;;;;;;;;;28.60;93.60;;;;;;5049015;28;19925;-66
2022/08/03 14:08:10;;;;;;;;;;;28.70;93.90;;;;;;5054163;28;19928;-65
2022/08/03 14:10:40;;;;;;;;;;;28.70;94.20;;;;;;5043752;28;19938;-65
2022/08/03 14:13:07;;;;;;;;;;;28.70;94.30;;;;;;5046144;28;19936;-67
2022/08/03 14:15:34;;;;;;;;;;;28.80;94.20;;;;;;5048098;28;19932;-65
2022/08/03 14:18:05;;;;;;;;;;;28.80;93.90;;;;;;5054498;28;19929;-66
2022/08/03 14:20:32;;;;;;;;;;;28.90;93.80;;;;;;5055198;28;19928;-65
2022/08/03 14:23:13;;;;;;;;;;;28.90;93.70;;;;;;5051279;28;19925;-65
2022/08/03 14:25:41;;;;;;;;;;;29.00;93.80;;;;;;5045559;28;19928;-65
2022/08/03 14:28:21;;;;;;;;;;;29.00;93.80;;;;;;5041215;28;19935;-66
2022/08/03 14:30:49;;;;;;;;;;;29.10;93.80;;;;;;5044578;28;20015;-65
2022/08/03 14:33:16;;;;;;;;;;;29.10;93.80;;;;;;5045508;28;19928;-66
2022/08/03 14:35:43;;;;;;;;;;;29.20;93.80;;;;;;5045262;28;21119;-66
2022/08/03 14:38:10;;;;;;;;;;;29.20;93.80;;;;;;5049032;28;19929;-67
2022/08/03 14:40:37;;;;;;;;;;;29.20;93.80;;;;;;5047721;28;20304;-65
2022/08/03 14:43:05;;;;;;;;;;;29.30;93.80;;;;;;5052844;28;19932;-68
2022/08/03 14:45:33;;;;;;;;;;;29.30;93.80;;;;;;5051079;28;19991;-64
2022/08/03 14:48:00;;;;;;;;;;;29.30;93.70;;;;;;5051123;28;19925;-65
2022/08/03 14:50:48;;;;;;;;;;;29.30;93.60;;;;;;5040328;28;19936;-64